KDEN/DEN METAR and TAF weather

Enter ICAO airport designator
Station Type Date Time Source
KDEN METAR 2018/01/21 12:33 UTC NOAA

KDEN 211233Z 02009KT 3/4SM R35L/5000VP6000FT -SN BR VV011 M04/M05 A2979 RMK AO2 P0005 T10391050


Station Type Date Time Source
KDEN Decoded METAR 2018/01/21 12:33 UTC NOAA

DENVER INTERNATIONAL AIRPORT, CO, United States (KDEN) 39-52N 104-40W 1640M
Jan 21, 2018 - 07:33 AM EST / 2018.01.21 1233 UTC
Wind: from the NNE (020 degrees) at 10 MPH (9 KT):0
Visibility: 3/4 mile(s):0
Sky conditions: obscured
Weather: light snow; mist
Precipitation last hour: 0.05 inches
Temperature: 25.0 F (-3.9 C)
Windchill: 15 F (-9 C):1
Dew Point: 23.0 F (-5.0 C)
Relative Humidity: 92%
Pressure (altimeter): 29.79 in. Hg (1008 hPa)
ob: KDEN 211233Z 02009KT 3/4SM R35L/5000VP6000FT -SN BR VV011 M04/M05 A2979 RMK AO2 P0005 T10391050
cycle: 12

Station Type Date Time Source
KDEN TAF 2018/01/21 12:36 UTC NOAA

TAF KDEN 211135Z 2112/2218 03012KT 1SM -SN BR BKN004 OVC007
TEMPO 2112/2116 1/2SM SN FZFG VV002
FM211600 01016G26KT 3/4SM -SN BR OVC004
FM212100 35022G34KT 1SM -SN BR BKN005 OVC009
FM220000 34018G26KT P6SM VCSH BKN012 OVC020
TEMPO 2200/2203 2SM -SN BKN006 OVC012
FM220300 32014G22KT P6SM SCT020 BKN050
FM221000 25012KT P6SM SCT040 BKN100


Example: see airport list